sensor_id;sensor_type;location;lat;lon;timestamp;pressure;altitude;pressure_sealevel;temperature;humidity
15229;BME280;7717;47.792;12.076;2023-04-07T00:00:20;96272.47;;;-1.31;100.00
15229;BME280;7717;47.792;12.076;2023-04-07T00:02:46;96268.94;;;-1.35;100.00
15229;BME280;7717;47.792;12.076;2023-04-07T00:05:13;96263.97;;;-1.33;100.00
15229;BME280;7717;47.792;12.076;2023-04-07T00:07:38;96268.88;;;-1.36;100.00
15229;BME280;7717;47.792;12.076;2023-04-07T00:10:04;96269.75;;;-1.36;100.00
15229;BME280;7717;47.792;12.076;2023-04-07T00:12:30;96278.31;;;-1.31;100.00
15229;BME280;7717;47.792;12.076;2023-04-07T00:14:58;96283.81;;;-1.20;100.00
15229;BME280;7717;47.792;12.076;2023-04-07T00:17:24;96274.03;;;-1.14;100.00
15229;BME280;7717;47.792;12.076;2023-04-07T00:19:49;96270.34;;;-1.22;100.00
15229;BME280;7717;47.792;12.076;2023-04-07T00:22:14;96272.16;;;-1.18;100.00
15229;BME280;7717;47.792;12.076;2023-04-07T00:24:40;96268.75;;;-1.20;100.00
15229;BME280;7717;47.792;12.076;2023-04-07T00:27:05;96265.53;;;-1.16;100.00
15229;BME280;7717;47.792;12.076;2023-04-07T00:29:31;96265.00;;;-1.09;100.00
15229;BME280;7717;47.792;12.076;2023-04-07T00:31:56;96267.66;;;-1.05;100.00
15229;BME280;7717;47.792;12.076;2023-04-07T00:34:22;96262.41;;;-0.91;100.00
15229;BME280;7717;47.792;12.076;2023-04-07T00:36:47;96262.41;;;-0.91;100.00
15229;BME280;7717;47.792;12.076;2023-04-07T00:39:17;96259.16;;;-0.88;100.00
15229;BME280;7717;47.792;12.076;2023-04-07T00:41:43;96259.16;;;-0.88;100.00
15229;BME280;7717;47.792;12.076;2023-04-07T00:44:09;96258.69;;;-0.79;100.00
15229;BME280;7717;47.792;12.076;2023-04-07T00:46:34;96250.75;;;-0.67;100.00
15229;BME280;7717;47.792;12.076;2023-04-07T00:49:00;96248.06;;;-0.72;100.00
15229;BME280;7717;47.792;12.076;2023-04-07T00:51:26;96259.97;;;-0.68;100.00
15229;BME280;7717;47.792;12.076;2023-04-07T00:53:51;96243.91;;;-0.71;100.00
15229;BME280;7717;47.792;12.076;2023-04-07T00:56:17;96244.94;;;-0.66;100.00
15229;BME280;7717;47.792;12.076;2023-04-07T00:58:42;96246.91;;;-0.59;100.00
15229;BME280;7717;47.792;12.076;2023-04-07T01:01:12;96252.34;;;-0.69;100.00
15229;BME280;7717;47.792;12.076;2023-04-07T01:03:57;96252.47;;;-0.66;100.00
15229;BME280;7717;47.792;12.076;2023-04-07T01:06:30;96248.66;;;-0.57;100.00
15229;BME280;7717;47.792;12.076;2023-04-07T01:09:22;96244.00;;;-0.47;100.00
15229;BME280;7717;47.792;12.076;2023-04-07T01:12:09;96246.72;;;-0.64;100.00
15229;BME280;7717;47.792;12.076;2023-04-07T01:14:41;96244.34;;;-0.61;100.00
15229;BME280;7717;47.792;12.076;2023-04-07T01:17:11;96252.28;;;-0.71;100.00
15229;BME280;7717;47.792;12.076;2023-04-07T01:19:42;96238.00;;;-0.72;100.00
15229;BME280;7717;47.792;12.076;2023-04-07T01:22:13;96224.47;;;-0.97;100.00
15229;BME280;7717;47.792;12.076;2023-04-07T01:25:22;96232.25;;;-0.91;100.00
15229;BME280;7717;47.792;12.076;2023-04-07T01:27:59;96239.75;;;-0.92;100.00
15229;BME280;7717;47.792;12.076;2023-04-07T01:30:37;96235.38;;;-0.96;100.00
15229;BME280;7717;47.792;12.076;2023-04-07T01:33:04;96229.44;;;-0.98;100.00
15229;BME280;7717;47.792;12.076;2023-04-07T01:35:32;96233.59;;;-0.99;100.00
15229;BME280;7717;47.792;12.076;2023-04-07T01:37:59;96235.97;;;-1.02;100.00
15229;BME280;7717;47.792;12.076;2023-04-07T01:40:25;96237.88;;;-0.96;100.00
15229;BME280;7717;47.792;12.076;2023-04-07T01:42:52;96232.63;;;-1.02;100.00
15229;BME280;7717;47.792;12.076;2023-04-07T01:45:19;96228.69;;;-1.17;100.00
15229;BME280;7717;47.792;12.076;2023-04-07T01:47:45;96221.16;;;-1.17;100.00
15229;BME280;7717;47.792;12.076;2023-04-07T01:50:11;96227.88;;;-1.16;100.00
15229;BME280;7717;47.792;12.076;2023-04-07T01:52:37;96226.97;;;-1.18;100.00
15229;BME280;7717;47.792;12.076;2023-04-07T01:55:04;96234.44;;;-1.19;100.00
15229;BME280;7717;47.792;12.076;2023-04-07T01:57:31;96209.69;;;-1.31;100.00
15229;BME280;7717;47.792;12.076;2023-04-07T01:59:57;96229.34;;;-1.21;100.00
15229;BME280;7717;47.792;12.076;2023-04-07T02:02:22;96217.69;;;-1.19;100.00
15229;BME280;7717;47.792;12.076;2023-04-07T02:04:55;96221.28;;;-1.14;100.00
15229;BME280;7717;47.792;12.076;2023-04-07T02:07:53;96216.84;;;-1.19;100.00
15229;BME280;7717;47.792;12.076;2023-04-07T02:10:22;96223.28;;;-1.26;100.00
15229;BME280;7717;47.792;12.076;2023-04-07T02:12:48;96211.31;;;-1.32;100.00
15229;BME280;7717;47.792;12.076;2023-04-07T02:15:14;96218.13;;;-1.29;100.00
15229;BME280;7717;47.792;12.076;2023-04-07T02:17:43;96214.03;;;-1.27;100.00
15229;BME280;7717;47.792;12.076;2023-04-07T02:20:11;96211.94;;;-1.37;100.00
15229;BME280;7717;47.792;12.076;2023-04-07T02:22:38;96206.28;;;-1.32;100.00
15229;BME280;7717;47.792;12.076;2023-04-07T02:27:44;96203.53;;;-1.38;100.00
15229;BME280;7717;47.792;12.076;2023-04-07T02:30:10;96212.13;;;-1.33;100.00
15229;BME280;7717;47.792;12.076;2023-04-07T02:32:36;96206.72;;;-1.42;100.00
15229;BME280;7717;47.792;12.076;2023-04-07T02:35:01;96208.09;;;-1.29;100.00
15229;BME280;7717;47.792;12.076;2023-04-07T02:37:26;96208.75;;;-1.33;100.00
15229;BME280;7717;47.792;12.076;2023-04-07T02:39:52;96204.53;;;-1.34;100.00
15229;BME280;7717;47.792;12.076;2023-04-07T02:42:17;96204.66;;;-1.31;100.00
15229;BME280;7717;47.792;12.076;2023-04-07T02:44:42;96197.72;;;-1.56;100.00
15229;BME280;7717;47.792;12.076;2023-04-07T02:47:08;96207.25;;;-1.49;100.00
15229;BME280;7717;47.792;12.076;2023-04-07T02:49:34;96201.31;;;-1.51;100.00
15229;BME280;7717;47.792;12.076;2023-04-07T02:51:59;96209.09;;;-1.65;100.00
15229;BME280;7717;47.792;12.076;2023-04-07T02:54:25;96194.50;;;-1.54;100.00
15229;BME280;7717;47.792;12.076;2023-04-07T02:56:50;96191.66;;;-1.42;100.00
15229;BME280;7717;47.792;12.076;2023-04-07T02:59:15;96193.09;;;-1.47;100.00
15229;BME280;7717;47.792;12.076;2023-04-07T03:01:41;96192.75;;;-1.35;100.00
15229;BME280;7717;47.792;12.076;2023-04-07T03:04:06;96194.50;;;-1.34;100.00
15229;BME280;7717;47.792;12.076;2023-04-07T03:06:31;96191.78;;;-1.18;100.00
15229;BME280;7717;47.792;12.076;2023-04-07T03:08:57;96181.69;;;-1.19;100.00
15229;BME280;7717;47.792;12.076;2023-04-07T03:11:22;96180.72;;;-1.23;100.00
15229;BME280;7717;47.792;12.076;2023-04-07T03:13:48;96171.91;;;-1.13;100.00
15229;BME280;7717;47.792;12.076;2023-04-07T03:16:13;96173.28;;;-0.99;100.00
15229;BME280;7717;47.792;12.076;2023-04-07T03:18:39;96177.09;;;-1.09;100.00
15229;BME280;7717;47.792;12.076;2023-04-07T03:21:04;96167.31;;;-1.02;100.00
15229;BME280;7717;47.792;12.076;2023-04-07T03:23:30;96171.78;;;-0.95;100.00
15229;BME280;7717;47.792;12.076;2023-04-07T03:25:56;96168.50;;;-0.93;100.00
15229;BME280;7717;47.792;12.076;2023-04-07T03:28:22;96167.91;;;-0.87;100.00
15229;BME280;7717;47.792;12.076;2023-04-07T03:30:47;96156.00;;;-0.70;100.00
15229;BME280;7717;47.792;12.076;2023-04-07T03:33:12;96158.56;;;-0.68;100.00
15229;BME280;7717;47.792;12.076;2023-04-07T03:35:38;96149.44;;;-0.66;100.00
15229;BME280;7717;47.792;12.076;2023-04-07T03:38:03;96159.16;;;-0.53;100.00
15229;BME280;7717;47.792;12.076;2023-04-07T03:40:28;96163.59;;;-0.46;100.00
15229;BME280;7717;47.792;12.076;2023-04-07T03:42:54;96164.31;;;-0.50;100.00
15229;BME280;7717;47.792;12.076;2023-04-07T03:45:19;96154.84;;;-0.33;100.00
15229;BME280;7717;47.792;12.076;2023-04-07T03:47:44;96159.31;;;-0.26;100.00
15229;BME280;7717;47.792;12.076;2023-04-07T03:50:10;96149.31;;;-0.24;100.00
15229;BME280;7717;47.792;12.076;2023-04-07T03:52:35;96151.16;;;-0.20;100.00
15229;BME280;7717;47.792;12.076;2023-04-07T03:55:01;96142.84;;;-0.17;100.00
15229;BME280;7717;47.792;12.076;2023-04-07T03:57:26;96149.34;;;0.00;100.00
15229;BME280;7717;47.792;12.076;2023-04-07T03:59:53;96144.28;;;-0.02;100.00
15229;BME280;7717;47.792;12.076;2023-04-07T04:02:20;96151.66;;;0.18;100.00
15229;BME280;7717;47.792;12.076;2023-04-07T04:04:45;96148.75;;;0.31;100.00
15229;BME280;7717;47.792;12.076;2023-04-07T04:07:11;96145.63;;;0.39;100.00
15229;BME280;7717;47.792;12.076;2023-04-07T04:09:36;96133.19;;;0.43;100.00
15229;BME280;7717;47.792;12.076;2023-04-07T04:12:01;96140.22;;;0.52;100.00
15229;BME280;7717;47.792;12.076;2023-04-07T04:14:27;96137.28;;;0.65;100.00
15229;BME280;7717;47.792;12.076;2023-04-07T04:16:53;96134.66;;;0.62;100.00
15229;BME280;7717;47.792;12.076;2023-04-07T04:19:18;96136.75;;;0.74;100.00
15229;BME280;7717;47.792;12.076;2023-04-07T04:21:44;96131.75;;;0.76;100.00
15229;BME280;7717;47.792;12.076;2023-04-07T04:24:10;96133.56;;;0.80;100.00
15229;BME280;7717;47.792;12.076;2023-04-07T04:26:35;96138.31;;;0.70;100.00
15229;BME280;7717;47.792;12.076;2023-04-07T04:29:01;96144.22;;;0.98;100.00
15229;BME280;7717;47.792;12.076;2023-04-07T04:31:27;96139.31;;;1.03;100.00
15229;BME280;7717;47.792;12.076;2023-04-07T04:33:53;96123.97;;;0.95;100.00
15229;BME280;7717;47.792;12.076;2023-04-07T04:36:18;96135.44;;;1.13;100.00
15229;BME280;7717;47.792;12.076;2023-04-07T04:38:43;96123.78;;;1.16;100.00
15229;BME280;7717;47.792;12.076;2023-04-07T04:41:09;96127.28;;;1.21;100.00
15229;BME280;7717;47.792;12.076;2023-04-07T04:43:34;96130.59;;;1.19;100.00
15229;BME280;7717;47.792;12.076;2023-04-07T04:46:00;96130.13;;;1.32;100.00
15229;BME280;7717;47.792;12.076;2023-04-07T04:48:25;96128.78;;;1.43;100.00
15229;BME280;7717;47.792;12.076;2023-04-07T04:50:51;96115.09;;;1.35;100.00
15229;BME280;7717;47.792;12.076;2023-04-07T04:53:16;96125.66;;;1.51;100.00
15229;BME280;7717;47.792;12.076;2023-04-07T04:55:42;96136.28;;;1.69;100.00
15229;BME280;7717;47.792;12.076;2023-04-07T04:58:11;96135.19;;;1.90;100.00
15229;BME280;7717;47.792;12.076;2023-04-07T05:00:36;96131.22;;;2.00;100.00
15229;BME280;7717;47.792;12.076;2023-04-07T05:03:02;96133.28;;;1.83;100.00
15229;BME280;7717;47.792;12.076;2023-04-07T05:05:28;96136.03;;;1.90;100.00
15229;BME280;7717;47.792;12.076;2023-04-07T05:07:53;96125.28;;;1.97;100.00
15229;BME280;7717;47.792;12.076;2023-04-07T05:10:19;96127.28;;;2.09;100.00
15229;BME280;7717;47.792;12.076;2023-04-07T05:12:44;96139.56;;;1.95;100.00
15229;BME280;7717;47.792;12.076;2023-04-07T05:15:10;96132.31;;;1.77;100.00
15229;BME280;7717;47.792;12.076;2023-04-07T05:17:35;96139.88;;;1.77;100.00
15229;BME280;7717;47.792;12.076;2023-04-07T05:20:01;96132.38;;;1.80;100.00
15229;BME280;7717;47.792;12.076;2023-04-07T05:22:27;96135.13;;;1.58;100.00
15229;BME280;7717;47.792;12.076;2023-04-07T05:24:52;96137.22;;;1.73;100.00
15229;BME280;7717;47.792;12.076;2023-04-07T05:27:18;96134.41;;;1.92;100.00
15229;BME280;7717;47.792;12.076;2023-04-07T05:29:43;96135.66;;;2.07;100.00
15229;BME280;7717;47.792;12.076;2023-04-07T05:32:08;96133.25;;;2.11;100.00
15229;BME280;7717;47.792;12.076;2023-04-07T05:34:34;96134.47;;;2.26;100.00
15229;BME280;7717;47.792;12.076;2023-04-07T05:36:59;96129.66;;;2.35;100.00
15229;BME280;7717;47.792;12.076;2023-04-07T05:39:24;96133.84;;;2.03;100.00
15229;BME280;7717;47.792;12.076;2023-04-07T05:41:50;96128.66;;;2.28;100.00
15229;BME280;7717;47.792;12.076;2023-04-07T05:44:16;96129.03;;;2.42;100.00
15229;BME280;7717;47.792;12.076;2023-04-07T05:46:41;96134.63;;;2.32;100.00
15229;BME280;7717;47.792;12.076;2023-04-07T05:49:06;96140.53;;;2.32;100.00
15229;BME280;7717;47.792;12.076;2023-04-07T05:51:32;96143.34;;;2.43;100.00
15229;BME280;7717;47.792;12.076;2023-04-07T05:54:00;96140.50;;;2.63;100.00
15229;BME280;7717;47.792;12.076;2023-04-07T05:56:27;96140.75;;;2.74;100.00
15229;BME280;7717;47.792;12.076;2023-04-07T05:58:52;96142.03;;;2.58;100.00
15229;BME280;7717;47.792;12.076;2023-04-07T06:01:18;96134.69;;;2.67;100.00
15229;BME280;7717;47.792;12.076;2023-04-07T06:03:43;96134.84;;;2.73;100.00
15229;BME280;7717;47.792;12.076;2023-04-07T06:06:09;96117.63;;;2.58;100.00
15229;BME280;7717;47.792;12.076;2023-04-07T06:08:34;96126.88;;;2.58;100.00
15229;BME280;7717;47.792;12.076;2023-04-07T06:11:00;96134.94;;;2.78;100.00
15229;BME280;7717;47.792;12.076;2023-04-07T06:13:25;96126.13;;;2.97;100.00
15229;BME280;7717;47.792;12.076;2023-04-07T06:15:53;96123.31;;;2.83;100.00
15229;BME280;7717;47.792;12.076;2023-04-07T06:18:19;96120.94;;;2.91;100.00
15229;BME280;7717;47.792;12.076;2023-04-07T06:20:44;96128.03;;;3.05;100.00
15229;BME280;7717;47.792;12.076;2023-04-07T06:23:10;96121.50;;;3.15;100.00
15229;BME280;7717;47.792;12.076;2023-04-07T06:25:35;96118.19;;;3.16;100.00
15229;BME280;7717;47.792;12.076;2023-04-07T06:28:01;96121.78;;;3.28;100.00
15229;BME280;7717;47.792;12.076;2023-04-07T06:30:26;96112.69;;;3.36;100.00
15229;BME280;7717;47.792;12.076;2023-04-07T06:32:51;96119.69;;;3.46;100.00
15229;BME280;7717;47.792;12.076;2023-04-07T06:35:17;96112.16;;;3.49;100.00
15229;BME280;7717;47.792;12.076;2023-04-07T06:37:42;96109.13;;;3.64;100.00
15229;BME280;7717;47.792;12.076;2023-04-07T06:40:08;96107.38;;;3.62;100.00
15229;BME280;7717;47.792;12.076;2023-04-07T06:42:33;96110.78;;;3.64;100.00
15229;BME280;7717;47.792;12.076;2023-04-07T06:44:59;96110.84;;;3.67;100.00
15229;BME280;7717;47.792;12.076;2023-04-07T06:47:24;96095.63;;;3.65;100.00
15229;BME280;7717;47.792;12.076;2023-04-07T06:49:49;96098.97;;;3.63;100.00
15229;BME280;7717;47.792;12.076;2023-04-07T06:52:15;96099.13;;;3.72;100.00
15229;BME280;7717;47.792;12.076;2023-04-07T06:54:40;96091.56;;;3.73;100.00
15229;BME280;7717;47.792;12.076;2023-04-07T06:57:06;96080.72;;;3.79;100.00
15229;BME280;7717;47.792;12.076;2023-04-07T06:59:38;96094.56;;;3.96;100.00
15229;BME280;7717;47.792;12.076;2023-04-07T07:02:04;96087.13;;;4.06;100.00
15229;BME280;7717;47.792;12.076;2023-04-07T07:04:31;96092.47;;;4.20;100.00
15229;BME280;7717;47.792;12.076;2023-04-07T07:06:57;96090.31;;;4.40;100.00
15229;BME280;7717;47.792;12.076;2023-04-07T07:09:22;96082.13;;;4.56;100.00
15229;BME280;7717;47.792;12.076;2023-04-07T07:11:47;96074.78;;;4.73;100.00
15229;BME280;7717;47.792;12.076;2023-04-07T07:14:13;96071.75;;;4.94;100.00
15229;BME280;7717;47.792;12.076;2023-04-07T07:16:38;96070.34;;;5.13;100.00
15229;BME280;7717;47.792;12.076;2023-04-07T07:19:06;96067.97;;;5.24;100.00
15229;BME280;7717;47.792;12.076;2023-04-07T07:21:31;96061.44;;;5.41;100.00
15229;BME280;7717;47.792;12.076;2023-04-07T07:23:57;96062.34;;;5.47;100.00
15229;BME280;7717;47.792;12.076;2023-04-07T07:26:22;96067.16;;;5.91;100.00
15229;BME280;7717;47.792;12.076;2023-04-07T07:28:47;96064.00;;;6.10;100.00
15229;BME280;7717;47.792;12.076;2023-04-07T07:31:13;96063.94;;;6.06;100.00
15229;BME280;7717;47.792;12.076;2023-04-07T07:33:40;96062.41;;;6.22;100.00
15229;BME280;7717;47.792;12.076;2023-04-07T07:36:08;96045.72;;;6.48;100.00
15229;BME280;7717;47.792;12.076;2023-04-07T07:38:33;96025.72;;;6.90;97.96
15229;BME280;7717;47.792;12.076;2023-04-07T07:40:59;96036.75;;;6.92;97.96
15229;BME280;7717;47.792;12.076;2023-04-07T07:43:25;96044.38;;;6.91;97.33
15229;BME280;7717;47.792;12.076;2023-04-07T07:45:50;96023.31;;;7.12;93.46
15229;BME280;7717;47.792;12.076;2023-04-07T07:48:15;96055.38;;;6.88;95.77
15229;BME280;7717;47.792;12.076;2023-04-07T07:50:41;96025.06;;;7.17;93.16
15229;BME280;7717;47.792;12.076;2023-04-07T07:53:09;96032.69;;;7.14;93.32
15229;BME280;7717;47.792;12.076;2023-04-07T07:55:34;96028.28;;;6.92;93.07
15229;BME280;7717;47.792;12.076;2023-04-07T07:58:00;96036.09;;;7.19;93.56
15229;BME280;7717;47.792;12.076;2023-04-07T08:00:25;96018.38;;;7.39;92.90
15229;BME280;7717;47.792;12.076;2023-04-07T08:02:50;96033.53;;;7.19;92.23
15229;BME280;7717;47.792;12.076;2023-04-07T08:05:16;96036.00;;;7.07;91.38
15229;BME280;7717;47.792;12.076;2023-04-07T08:07:41;96029.13;;;6.94;91.31
15229;BME280;7717;47.792;12.076;2023-04-07T08:10:07;96033.34;;;6.90;91.02
15229;BME280;7717;47.792;12.076;2023-04-07T08:12:33;96034.38;;;7.17;92.08
15229;BME280;7717;47.792;12.076;2023-04-07T08:14:58;96033.56;;;7.21;91.15
15229;BME280;7717;47.792;12.076;2023-04-07T08:17:24;96025.84;;;7.07;90.67
15229;BME280;7717;47.792;12.076;2023-04-07T08:19:49;96057.38;;;7.32;91.90
15229;BME280;7717;47.792;12.076;2023-04-07T08:22:15;96034.44;;;7.29;90.63
15229;BME280;7717;47.792;12.076;2023-04-07T08:24:40;96004.84;;;7.50;88.77
15229;BME280;7717;47.792;12.076;2023-04-07T08:27:05;96006.53;;;7.46;87.53
15229;BME280;7717;47.792;12.076;2023-04-07T08:29:31;96021.09;;;7.80;88.45
15229;BME280;7717;47.792;12.076;2023-04-07T08:31:56;96050.91;;;8.07;90.19
15229;BME280;7717;47.792;12.076;2023-04-07T08:34:22;96010.94;;;7.97;87.46
15229;BME280;7717;47.792;12.076;2023-04-07T08:36:47;95999.09;;;7.99;86.05
15229;BME280;7717;47.792;12.076;2023-04-07T08:39:13;95988.03;;;8.04;85.52
15229;BME280;7717;47.792;12.076;2023-04-07T08:41:39;95997.47;;;8.56;86.73
15229;BME280;7717;47.792;12.076;2023-04-07T08:44:09;95994.88;;;9.16;86.16
15229;BME280;7717;47.792;12.076;2023-04-07T08:46:37;95955.50;;;9.68;84.17
15229;BME280;7717;47.792;12.076;2023-04-07T08:49:07;95955.97;;;10.40;83.38
15229;BME280;7717;47.792;12.076;2023-04-07T08:51:36;95969.47;;;10.57;83.23
15229;BME280;7717;47.792;12.076;2023-04-07T08:54:13;95909.13;;;10.27;78.21
15229;BME280;7717;47.792;12.076;2023-04-07T08:56:39;95910.75;;;10.39;78.34
15229;BME280;7717;47.792;12.076;2023-04-07T08:59:07;95969.34;;;10.71;81.80
15229;BME280;7717;47.792;12.076;2023-04-07T09:01:34;95979.44;;;10.90;82.31
15229;BME280;7717;47.792;12.076;2023-04-07T09:04:01;95954.06;;;11.49;80.89
15229;BME280;7717;47.792;12.076;2023-04-07T09:06:29;95958.00;;;10.98;80.11
15229;BME280;7717;47.792;12.076;2023-04-07T09:08:59;95924.38;;;11.28;77.84
15229;BME280;7717;47.792;12.076;2023-04-07T09:11:26;95982.19;;;11.53;81.68
15229;BME280;7717;47.792;12.076;2023-04-07T09:13:51;95904.63;;;11.36;75.83
15229;BME280;7717;47.792;12.076;2023-04-07T09:16:17;95930.34;;;11.98;77.95
15229;BME280;7717;47.792;12.076;2023-04-07T09:18:43;95933.44;;;11.58;77.06
15229;BME280;7717;47.792;12.076;2023-04-07T09:21:08;95874.09;;;11.21;72.85
15229;BME280;7717;47.792;12.076;2023-04-07T09:23:37;95983.03;;;11.52;80.07
15229;BME280;7717;47.792;12.076;2023-04-07T09:26:22;95935.88;;;11.67;76.39
15229;BME280;7717;47.792;12.076;2023-04-07T09:28:51;95951.00;;;11.18;77.57
15229;BME280;7717;47.792;12.076;2023-04-07T09:31:17;95935.00;;;11.67;76.26
15229;BME280;7717;47.792;12.076;2023-04-07T09:33:45;95926.25;;;11.15;75.84
15229;BME280;7717;47.792;12.076;2023-04-07T09:36:11;95887.16;;;10.97;73.48
15229;BME280;7717;47.792;12.076;2023-04-07T09:38:38;95935.06;;;10.89;75.33
15229;BME280;7717;47.792;12.076;2023-04-07T09:41:16;95921.19;;;11.09;74.87
15229;BME280;7717;47.792;12.076;2023-04-07T09:43:43;95982.44;;;11.32;78.60
15229;BME280;7717;47.792;12.076;2023-04-07T09:48:38;95945.38;;;11.59;77.16
15229;BME280;7717;47.792;12.076;2023-04-07T09:51:12;95918.56;;;11.15;74.57
15229;BME280;7717;47.792;12.076;2023-04-07T09:53:49;95924.25;;;11.40;75.14
15229;BME280;7717;47.792;12.076;2023-04-07T09:56:16;95985.16;;;11.89;80.18
15229;BME280;7717;47.792;12.076;2023-04-07T09:58:46;95918.22;;;12.11;75.45
15229;BME280;7717;47.792;12.076;2023-04-07T10:01:16;95970.50;;;12.58;78.93
15229;BME280;7717;47.792;12.076;2023-04-07T10:03:43;95955.84;;;13.15;78.39
15229;BME280;7717;47.792;12.076;2023-04-07T10:06:08;95929.13;;;12.77;76.48
15229;BME280;7717;47.792;12.076;2023-04-07T10:08:36;95962.03;;;12.53;77.81
15229;BME280;7717;47.792;12.076;2023-04-07T10:11:02;95931.94;;;13.11;77.13
15229;BME280;7717;47.792;12.076;2023-04-07T10:13:33;95960.63;;;13.37;78.20
15229;BME280;7717;47.792;12.076;2023-04-07T10:15:59;95915.56;;;13.15;75.70
15229;BME280;7717;47.792;12.076;2023-04-07T10:18:31;95863.31;;;14.34;72.52
15229;BME280;7717;47.792;12.076;2023-04-07T10:21:02;95894.97;;;14.00;74.05
15229;BME280;7717;47.792;12.076;2023-04-07T10:23:36;95859.13;;;14.28;72.52
15229;BME280;7717;47.792;12.076;2023-04-07T10:26:05;95843.41;;;15.38;72.38
15229;BME280;7717;47.792;12.076;2023-04-07T10:28:32;95691.75;;;17.22;63.48
15229;BME280;7717;47.792;12.076;2023-04-07T10:31:02;95777.13;;;16.72;67.66
15229;BME280;7717;47.792;12.076;2023-04-07T10:33:51;95705.97;;;17.11;62.79
15229;BME280;7717;47.792;12.076;2023-04-07T10:36:18;95790.03;;;18.53;68.07
15229;BME280;7717;47.792;12.076;2023-04-07T10:41:31;95717.72;;;18.27;61.58
15229;BME280;7717;47.792;12.076;2023-04-07T10:44:03;95754.84;;;17.40;63.95
15229;BME280;7717;47.792;12.076;2023-04-07T10:49:11;95817.38;;;17.04;67.11
15229;BME280;7717;47.792;12.076;2023-04-07T10:51:41;95794.56;;;17.16;65.80
15229;BME280;7717;47.792;12.076;2023-04-07T10:54:19;95704.06;;;18.23;59.68
15229;BME280;7717;47.792;12.076;2023-04-07T10:59:31;95774.81;;;19.25;65.71
15229;BME280;7717;47.792;12.076;2023-04-07T11:04:48;95780.06;;;19.04;65.10
15229;BME280;7717;47.792;12.076;2023-04-07T11:07:14;95735.41;;;20.09;62.57
15229;BME280;7717;47.792;12.076;2023-04-07T11:09:40;95730.59;;;19.65;61.50
15229;BME280;7717;47.792;12.076;2023-04-07T11:12:06;95765.44;;;20.67;64.92
15229;BME280;7717;47.792;12.076;2023-04-07T11:14:32;95754.16;;;21.33;64.23
15229;BME280;7717;47.792;12.076;2023-04-07T11:16:59;95676.34;;;22.05;59.12
15229;BME280;7717;47.792;12.076;2023-04-07T11:19:27;95713.75;;;21.74;60.80
15229;BME280;7717;47.792;12.076;2023-04-07T11:22:12;95579.88;;;20.68;51.84
15229;BME280;7717;47.792;12.076;2023-04-07T11:24:38;95682.59;;;21.25;58.18
15229;BME280;7717;47.792;12.076;2023-04-07T11:27:03;95751.06;;;20.60;63.15
15229;BME280;7717;47.792;12.076;2023-04-07T11:29:33;95673.66;;;22.21;57.02
15229;BME280;7717;47.792;12.076;2023-04-07T11:32:00;95673.38;;;20.36;56.69
15229;BME280;7717;47.792;12.076;2023-04-07T11:34:34;95693.19;;;18.15;55.61
15229;BME280;7717;47.792;12.076;2023-04-07T11:37:25;95580.78;;;20.67;51.12
15229;BME280;7717;47.792;12.076;2023-04-07T11:39:53;95705.34;;;20.38;58.02
15229;BME280;7717;47.792;12.076;2023-04-07T11:42:32;95572.88;;;22.78;51.47
15229;BME280;7717;47.792;12.076;2023-04-07T11:44:57;95644.44;;;21.86;54.96
15229;BME280;7717;47.792;12.076;2023-04-07T11:47:36;95538.63;;;21.54;49.28
15229;BME280;7717;47.792;12.076;2023-04-07T11:50:02;95728.31;;;18.22;58.40
15229;BME280;7717;47.792;12.076;2023-04-07T11:52:27;95790.31;;;19.27;63.34
15229;BME280;7717;47.792;12.076;2023-04-07T11:54:52;95728.03;;;20.52;58.97
15229;BME280;7717;47.792;12.076;2023-04-07T11:57:25;95719.31;;;17.00;56.51
15229;BME280;7717;47.792;12.076;2023-04-07T12:00:04;95793.97;;;16.08;60.61
15229;BME280;7717;47.792;12.076;2023-04-07T12:02:31;95833.63;;;14.88;63.50
15229;BME280;7717;47.792;12.076;2023-04-07T12:04:57;95839.78;;;15.72;65.17
15229;BME280;7717;47.792;12.076;2023-04-07T12:07:23;95890.38;;;15.18;68.81
15229;BME280;7717;47.792;12.076;2023-04-07T12:09:48;95872.63;;;15.66;67.16
15229;BME280;7717;47.792;12.076;2023-04-07T12:12:13;95851.94;;;16.77;66.38
15229;BME280;7717;47.792;12.076;2023-04-07T12:14:49;95785.41;;;17.07;62.40
15229;BME280;7717;47.792;12.076;2023-04-07T12:17:26;95805.03;;;15.27;63.20
15229;BME280;7717;47.792;12.076;2023-04-07T12:19:52;95785.91;;;15.62;61.56
15229;BME280;7717;47.792;12.076;2023-04-07T12:22:18;95717.75;;;19.06;59.14
15229;BME280;7717;47.792;12.076;2023-04-07T12:24:44;95660.44;;;20.01;56.62
15229;BME280;7717;47.792;12.076;2023-04-07T12:27:10;95649.91;;;16.65;54.47
15229;BME280;7717;47.792;12.076;2023-04-07T12:29:35;95803.56;;;16.30;63.53
15229;BME280;7717;47.792;12.076;2023-04-07T12:32:04;95785.00;;;16.69;62.01
15229;BME280;7717;47.792;12.076;2023-04-07T12:34:30;95688.78;;;20.74;58.74
15229;BME280;7717;47.792;12.076;2023-04-07T12:36:55;95614.00;;;23.01;55.32
15229;BME280;7717;47.792;12.076;2023-04-07T12:39:21;95538.19;;;23.70;50.68
15229;BME280;7717;47.792;12.076;2023-04-07T12:41:46;95604.38;;;23.44;54.52
15229;BME280;7717;47.792;12.076;2023-04-07T12:44:12;95698.50;;;19.85;58.16
15229;BME280;7717;47.792;12.076;2023-04-07T12:46:38;95791.50;;;19.38;63.52
15229;BME280;7717;47.792;12.076;2023-04-07T12:49:03;95653.03;;;20.78;55.48
15229;BME280;7717;47.792;12.076;2023-04-07T12:51:29;95685.50;;;19.12;56.87
15229;BME280;7717;47.792;12.076;2023-04-07T12:53:57;95685.81;;;19.59;57.57
15229;BME280;7717;47.792;12.076;2023-04-07T12:56:22;95705.00;;;18.81;58.52
15229;BME280;7717;47.792;12.076;2023-04-07T12:58:48;95663.31;;;20.63;55.98
15229;BME280;7717;47.792;12.076;2023-04-07T13:01:16;95550.50;;;23.43;50.37
15229;BME280;7717;47.792;12.076;2023-04-07T13:03:42;95622.59;;;21.42;53.77
15229;BME280;7717;47.792;12.076;2023-04-07T13:06:07;95606.97;;;22.17;53.50
15229;BME280;7717;47.792;12.076;2023-04-07T13:08:32;95618.59;;;23.40;55.29
15229;BME280;7717;47.792;12.076;2023-04-07T13:10:58;95637.84;;;22.39;54.87
15229;BME280;7717;47.792;12.076;2023-04-07T13:13:23;95587.41;;;23.77;53.46